Time;durP1;ratioP1;P1;durP2;ratioP2;P2;SDS_P1;SDS_P2;PMS_P1;PMS_P2;Temp;Humidity;BMP_temperature;BMP_pressure;BME280_temperature;BME280_humidity;BME280_pressure;Samples;Min_cycle;Max_cycle;Signal;HPM_P1;HPM_P2
2022/04/12 00:00:36;;;;;;;16.73;10.95;;;11.80;90.20;;;;;;5056429;28;20072;-53
2022/04/12 00:03:03;;;;;;;15.50;11.10;;;11.70;90.50;;;;;;5055935;28;20040;-52
2022/04/12 00:05:30;;;;;;;16.65;10.68;;;11.70;90.50;;;;;;5056089;28;20459;-55
2022/04/12 00:07:58;;;;;;;15.57;10.40;;;11.70;90.40;;;;;;5056088;28;20037;-55
2022/04/12 00:10:24;;;;;;;19.10;11.27;;;11.70;90.60;;;;;;5055908;28;20079;-55
2022/04/12 00:12:51;;;;;;;16.45;10.57;;;11.60;90.60;;;;;;5054742;28;20041;-53
2022/04/12 00:15:18;;;;;;;16.02;11.05;;;11.60;90.70;;;;;;5055790;28;20944;-55
2022/04/12 00:20:30;;;;;;;14.73;9.63;;;11.50;90.80;;;;;;5057326;28;20040;-54
2022/04/12 00:22:57;;;;;;;16.17;11.02;;;11.50;91.00;;;;;;5054624;28;20037;-50
2022/04/12 00:25:24;;;;;;;15.10;10.55;;;11.50;91.00;;;;;;5054201;28;20052;-55
2022/04/12 00:27:50;;;;;;;17.70;10.88;;;11.50;91.10;;;;;;5055659;28;20072;-57
2022/04/12 00:30:18;;;;;;;16.52;10.52;;;11.50;91.00;;;;;;5054177;28;20049;-54
2022/04/12 00:32:45;;;;;;;14.95;10.82;;;11.40;91.10;;;;;;5055165;28;20480;-53
2022/04/12 00:35:12;;;;;;;14.60;10.38;;;11.40;91.30;;;;;;5054222;28;20040;-54
2022/04/12 00:37:38;;;;;;;16.80;11.05;;;11.40;91.20;;;;;;5055328;28;20099;-56
2022/04/12 00:40:05;;;;;;;16.02;10.40;;;11.40;91.20;;;;;;5055369;28;20049;-54
2022/04/12 00:42:32;;;;;;;16.02;11.05;;;11.50;91.00;;;;;;5055033;28;20060;-53
2022/04/12 00:44:59;;;;;;;15.20;10.43;;;11.50;91.20;;;;;;5055307;28;20480;-53
2022/04/12 00:47:25;;;;;;;13.60;10.40;;;11.50;91.10;;;;;;5055201;28;20037;-55
2022/04/12 00:49:52;;;;;;;15.15;10.80;;;11.50;91.10;;;;;;5055082;28;20049;-58
2022/04/12 00:52:19;;;;;;;15.35;10.77;;;11.50;91.30;;;;;;5054973;28;20112;-52
2022/04/12 00:54:47;;;;;;;14.88;10.80;;;11.50;91.30;;;;;;5048751;28;20057;-57
2022/04/12 00:57:15;;;;;;;15.38;10.98;;;11.40;91.20;;;;;;5059809;28;20060;-54
2022/04/12 00:59:41;;;;;;;16.20;10.73;;;11.40;91.30;;;;;;5054926;28;20051;-50
2022/04/12 01:02:08;;;;;;;16.08;11.10;;;11.40;91.20;;;;;;5048423;28;20092;-54
2022/04/12 01:04:35;;;;;;;16.75;10.43;;;11.40;91.60;;;;;;5048299;28;20515;-51
2022/04/12 01:07:02;;;;;;;14.57;9.93;;;11.50;91.30;;;;;;5048234;28;20455;-51
2022/04/12 01:09:28;;;;;;;14.30;10.13;;;11.50;91.10;;;;;;5054903;28;20041;-54
2022/04/12 01:11:55;;;;;;;16.17;10.98;;;11.50;91.20;;;;;;5054739;28;20454;-51
2022/04/12 01:14:22;;;;;;;16.85;10.02;;;11.50;91.10;;;;;;5054661;28;20051;-53
2022/04/12 01:16:49;;;;;;;16.05;10.50;;;11.50;91.00;;;;;;5054748;28;20133;-51
2022/04/12 01:19:16;;;;;;;16.75;10.82;;;11.50;91.20;;;;;;5054533;28;20053;-50
2022/04/12 01:21:42;;;;;;;16.35;10.50;;;11.50;91.20;;;;;;5054515;28;20132;-52
2022/04/12 01:24:09;;;;;;;15.40;10.30;;;11.50;91.00;;;;;;5054444;28;20045;-53
2022/04/12 01:26:36;;;;;;;18.63;10.82;;;11.50;91.20;;;;;;5055951;28;20065;-50
2022/04/12 01:29:02;;;;;;;15.10;10.52;;;11.50;91.20;;;;;;5054521;28;20098;-52
2022/04/12 01:31:29;;;;;;;14.30;10.57;;;11.50;91.20;;;;;;5054493;28;20044;-52
2022/04/12 01:33:56;;;;;;;15.57;10.48;;;11.50;91.20;;;;;;5054311;28;20083;-53
2022/04/12 01:36:23;;;;;;;14.63;10.00;;;11.40;91.30;;;;;;5054296;28;20123;-52
2022/04/12 01:38:49;;;;;;;16.13;10.98;;;11.40;91.30;;;;;;5054276;28;20533;-54
2022/04/12 01:41:16;;;;;;;15.18;10.48;;;11.40;91.40;;;;;;5054074;28;20071;-53
2022/04/12 01:43:43;;;;;;;15.40;10.65;;;11.30;91.30;;;;;;5054152;28;20487;-53
2022/04/12 01:46:09;;;;;;;17.88;12.15;;;11.30;91.40;;;;;;5054123;28;20446;-55
2022/04/12 01:48:36;;;;;;;14.00;10.38;;;11.30;91.60;;;;;;5054131;28;20036;-55
2022/04/12 01:51:03;;;;;;;14.55;10.63;;;11.20;91.50;;;;;;5053631;28;20064;-56
2022/04/12 01:53:30;;;;;;;16.17;10.90;;;11.20;91.50;;;;;;5054019;28;20047;-53
2022/04/12 01:55:57;;;;;;;16.10;10.63;;;11.30;91.50;;;;;;5053319;28;20076;-56
2022/04/12 01:58:23;;;;;;;16.38;10.65;;;11.20;91.50;;;;;;5054034;28;20045;-53
2022/04/12 02:00:50;;;;;;;15.75;11.50;;;11.30;91.50;;;;;;5057246;28;20077;-54
2022/04/12 02:03:17;;;;;;;14.30;10.07;;;11.20;91.50;;;;;;5053841;28;20045;-52
2022/04/12 02:05:45;;;;;;;15.10;10.38;;;11.20;91.50;;;;;;5054158;28;20063;-55
2022/04/12 02:08:11;;;;;;;16.35;11.23;;;11.20;91.60;;;;;;5053795;28;20388;-52
2022/04/12 02:10:38;;;;;;;16.23;11.25;;;11.20;91.70;;;;;;5053716;28;20045;-51
2022/04/12 02:13:05;;;;;;;14.27;10.60;;;11.10;91.70;;;;;;5053754;28;20041;-57
2022/04/12 02:15:33;;;;;;;15.80;10.77;;;11.10;91.70;;;;;;5053516;28;20041;-55
2022/04/12 02:18:00;;;;;;;14.43;11.43;;;11.10;91.80;;;;;;5053616;28;20064;-54
2022/04/12 02:20:27;;;;;;;15.60;10.80;;;11.10;91.80;;;;;;5053383;28;20076;-51
2022/04/12 02:22:54;;;;;;;12.90;10.05;;;11.10;91.90;;;;;;5052064;28;20364;-54
2022/04/12 02:25:20;;;;;;;14.98;10.52;;;11.00;91.80;;;;;;5052196;28;20141;-55
2022/04/12 02:27:47;;;;;;;13.45;10.20;;;11.10;91.80;;;;;;5053397;28;20045;-50
2022/04/12 02:30:14;;;;;;;15.07;10.52;;;11.10;91.90;;;;;;5053409;28;20044;-52
2022/04/12 02:32:41;;;;;;;16.25;10.07;;;11.10;91.60;;;;;;5053239;28;20044;-51
2022/04/12 02:35:08;;;;;;;16.50;10.15;;;11.10;91.50;;;;;;5053305;28;20068;-55
2022/04/12 02:37:34;;;;;;;12.55;9.48;;;11.10;91.60;;;;;;5053386;28;20099;-56
2022/04/12 02:40:02;;;;;;;15.73;10.25;;;11.20;91.60;;;;;;5053166;28;20575;-54
2022/04/12 02:42:29;;;;;;;13.15;9.93;;;11.20;91.70;;;;;;5053308;28;20446;-56
2022/04/12 02:44:55;;;;;;;13.48;9.35;;;11.30;91.70;;;;;;5051858;28;20128;-57
2022/04/12 02:47:22;;;;;;;15.30;10.27;;;11.30;91.60;;;;;;5053016;28;20503;-55
2022/04/12 02:49:49;;;;;;;15.60;9.93;;;11.40;91.50;;;;;;5052976;28;20392;-56
2022/04/12 02:52:15;;;;;;;12.75;9.88;;;11.40;91.50;;;;;;5053231;28;20586;-53
2022/04/12 02:54:42;;;;;;;13.23;9.85;;;11.40;91.60;;;;;;5052930;28;20564;-51
2022/04/12 02:57:09;;;;;;;14.90;9.73;;;11.40;91.60;;;;;;5052945;28;20048;-54
2022/04/12 02:59:35;;;;;;;11.98;9.18;;;11.40;91.60;;;;;;5054496;28;20102;-51
2022/04/12 03:02:02;;;;;;;14.60;9.43;;;11.40;91.50;;;;;;5052921;28;20041;-50
2022/04/12 03:04:29;;;;;;;12.13;9.88;;;11.50;91.50;;;;;;5052974;28;20555;-54
2022/04/12 03:06:56;;;;;;;13.70;9.57;;;11.50;91.30;;;;;;5055369;28;20499;-53
2022/04/12 03:09:23;;;;;;;12.82;9.32;;;11.60;91.30;;;;;;5057362;28;20425;-49
2022/04/12 03:11:50;;;;;;;13.05;9.55;;;11.60;91.20;;;;;;5057172;28;20041;-56
2022/04/12 03:14:16;;;;;;;12.65;9.30;;;11.60;91.20;;;;;;5056859;28;20511;-54
2022/04/12 03:16:43;;;;;;;15.13;10.02;;;11.60;91.20;;;;;;5057048;28;20049;-53
2022/04/12 03:19:10;;;;;;;12.75;9.40;;;11.70;91.10;;;;;;5056930;28;20041;-53
2022/04/12 03:21:37;;;;;;;13.18;9.50;;;11.70;91.10;;;;;;5056998;28;20041;-49
2022/04/12 03:24:03;;;;;;;14.40;10.25;;;11.70;91.10;;;;;;5057013;28;20150;-54
2022/04/12 03:26:30;;;;;;;13.60;9.68;;;11.70;91.10;;;;;;5056630;28;20111;-51
2022/04/12 03:28:57;;;;;;;11.95;9.88;;;11.70;91.30;;;;;;5056646;28;20037;-51
2022/04/12 03:31:23;;;;;;;12.80;10.02;;;11.70;91.40;;;;;;5061274;28;20052;-50
2022/04/12 03:33:50;;;;;;;13.10;9.73;;;11.60;91.70;;;;;;5056693;28;20120;-56
2022/04/12 03:36:17;;;;;;;14.98;9.18;;;11.60;91.50;;;;;;5056445;28;20060;-50
2022/04/12 03:38:50;;;;;;;12.82;9.45;;;11.60;91.50;;;;;;5056702;28;20040;-53
2022/04/12 03:41:21;;;;;;;13.63;9.40;;;11.50;91.60;;;;;;5056372;28;20048;-52
2022/04/12 03:43:48;;;;;;;13.80;9.82;;;11.50;91.70;;;;;;5056359;28;20051;-53
2022/04/12 03:46:17;;;;;;;17.83;10.45;;;11.40;91.80;;;;;;5056295;28;20120;-54
2022/04/12 03:48:44;;;;;;;16.88;11.10;;;11.40;92.00;;;;;;5055304;28;20045;-52
2022/04/12 03:51:11;;;;;;;16.40;10.35;;;11.30;92.30;;;;;;5056138;28;20133;-55
2022/04/12 03:53:39;;;;;;;16.15;11.55;;;11.20;92.50;;;;;;5061478;28;20483;-52
2022/04/12 03:56:07;;;;;;;16.63;11.30;;;11.10;92.70;;;;;;5056194;28;20044;-52
2022/04/12 03:58:34;;;;;;;16.15;11.80;;;11.10;92.90;;;;;;5056274;28;20051;-55
2022/04/12 04:01:02;;;;;;;19.88;12.98;;;11.00;93.00;;;;;;5055718;28;20060;-51
2022/04/12 04:03:29;;;;;;;17.08;12.57;;;10.90;93.20;;;;;;5056167;28;20041;-54
2022/04/12 04:05:55;;;;;;;17.50;13.45;;;10.80;93.30;;;;;;5055880;28;20480;-55
2022/04/12 04:08:22;;;;;;;18.30;13.07;;;10.80;93.50;;;;;;5055854;28;20048;-54
2022/04/12 04:10:49;;;;;;;18.90;12.20;;;10.70;93.60;;;;;;5055915;28;20459;-54
2022/04/12 04:13:19;;;;;;;22.38;13.45;;;10.70;93.70;;;;;;5056132;28;20037;-54
2022/04/12 04:15:46;;;;;;;20.65;13.65;;;10.60;93.90;;;;;;5055981;28;20052;-56
2022/04/12 04:18:13;;;;;;;19.52;13.88;;;10.60;94.10;;;;;;5053954;28;20051;-56
2022/04/12 04:20:40;;;;;;;19.13;13.88;;;10.50;94.20;;;;;;5055688;28;20124;-54
2022/04/12 04:23:07;;;;;;;19.60;13.18;;;10.50;94.40;;;;;;5055536;28;20518;-54
2022/04/12 04:25:34;;;;;;;21.38;14.48;;;10.50;94.50;;;;;;5054278;28;20037;-52
2022/04/12 04:28:01;;;;;;;21.40;14.02;;;10.40;94.60;;;;;;5055669;28;20037;-56
2022/04/12 04:30:28;;;;;;;20.33;14.35;;;10.40;94.60;;;;;;5058992;28;20098;-55
2022/04/12 04:32:55;;;;;;;19.02;15.48;;;10.30;94.70;;;;;;5055467;28;20052;-54
2022/04/12 04:35:21;;;;;;;18.20;14.18;;;10.30;94.90;;;;;;5055724;28;20492;-52
2022/04/12 04:37:48;;;;;;;21.20;14.60;;;10.30;95.00;;;;;;5055418;28;20045;-53
2022/04/12 04:40:15;;;;;;;21.98;15.15;;;10.30;95.10;;;;;;5055569;28;20354;-54
2022/04/12 04:42:42;;;;;;;22.00;15.32;;;10.20;95.10;;;;;;5055383;28;20045;-52
2022/04/12 04:45:09;;;;;;;21.92;15.30;;;10.30;95.10;;;;;;5055222;28;20037;-55
2022/04/12 04:47:36;;;;;;;20.10;15.15;;;10.20;95.10;;;;;;5055261;28;20037;-56
2022/04/12 04:50:02;;;;;;;22.70;15.80;;;10.30;95.20;;;;;;5055488;28;20076;-53
2022/04/12 04:52:29;;;;;;;22.70;15.50;;;10.20;95.30;;;;;;5060112;28;20045;-51
2022/04/12 04:54:56;;;;;;;23.60;15.68;;;10.20;95.30;;;;;;5055214;28;20041;-53
2022/04/12 04:57:22;;;;;;;24.70;16.15;;;10.20;95.50;;;;;;5055874;28;20049;-50
2022/04/12 04:59:49;;;;;;;26.67;16.92;;;10.20;95.50;;;;;;5053944;28;20052;-51
2022/04/12 05:02:16;;;;;;;22.25;15.05;;;10.20;95.60;;;;;;5054786;28;20492;-52
2022/04/12 05:04:43;;;;;;;23.15;15.70;;;10.10;95.70;;;;;;5054946;28;20041;-54
2022/04/12 05:07:09;;;;;;;25.17;16.27;;;10.10;95.70;;;;;;5055038;28;20037;-55
2022/04/12 05:09:40;;;;;;;20.85;15.60;;;10.10;95.80;;;;;;5055019;28;20037;-51
2022/04/12 05:12:06;;;;;;;21.20;14.82;;;10.10;95.80;;;;;;5054639;28;20131;-54
2022/04/12 05:14:33;;;;;;;20.95;15.18;;;10.20;95.80;;;;;;5054952;28;20045;-53
2022/04/12 05:17:00;;;;;;;22.60;14.57;;;10.20;95.70;;;;;;5054886;28;20072;-52
2022/04/12 05:19:26;;;;;;;20.45;15.05;;;10.30;95.70;;;;;;5054751;28;20483;-51
2022/04/12 05:21:53;;;;;;;23.77;15.48;;;10.30;95.60;;;;;;5054757;28;20112;-53
2022/04/12 05:24:20;;;;;;;24.48;16.02;;;10.30;95.60;;;;;;5054774;28;20041;-53
2022/04/12 05:26:47;;;;;;;25.13;15.38;;;10.40;95.60;;;;;;5058726;28;20119;-54
2022/04/12 05:29:14;;;;;;;21.40;16.02;;;10.40;95.60;;;;;;5053988;28;20037;-55
2022/04/12 05:31:40;;;;;;;24.30;16.55;;;10.50;95.50;;;;;;5054054;28;20492;-54
2022/04/12 05:34:07;;;;;;;23.40;16.13;;;10.40;95.50;;;;;;5048000;28;20045;-55
2022/04/12 05:36:34;;;;;;;22.75;15.50;;;10.50;95.60;;;;;;5053200;28;20045;-52
2022/04/12 05:39:00;;;;;;;22.42;15.80;;;10.40;95.60;;;;;;5054230;28;20041;-55
2022/04/12 05:41:27;;;;;;;21.90;15.43;;;10.40;95.70;;;;;;5053949;28;20087;-54
2022/04/12 05:43:54;;;;;;;23.75;15.02;;;10.50;95.80;;;;;;5054651;28;20114;-55
2022/04/12 05:46:21;;;;;;;20.27;14.27;;;10.50;95.70;;;;;;5054019;28;20087;-53
2022/04/12 05:48:47;;;;;;;19.63;13.50;;;10.60;95.70;;;;;;5054282;28;20140;-57
2022/04/12 05:51:14;;;;;;;18.85;13.93;;;10.60;95.70;;;;;;5053886;28;20139;-51
2022/04/12 05:53:41;;;;;;;19.42;13.57;;;10.70;95.80;;;;;;5057857;28;20044;-52
2022/04/12 05:56:07;;;;;;;17.52;12.63;;;10.80;96.00;;;;;;5054151;28;20077;-54
2022/04/12 05:58:35;;;;;;;18.85;11.35;;;10.80;95.90;;;;;;5053848;28;20045;-53
2022/04/12 06:01:02;;;;;;;16.88;11.50;;;10.90;95.80;;;;;;5053948;28;20071;-55
2022/04/12 06:03:28;;;;;;;15.05;11.15;;;11.00;95.80;;;;;;5059061;28;20051;-52
2022/04/12 06:05:55;;;;;;;17.35;11.60;;;11.00;95.60;;;;;;5053765;28;20095;-53
2022/04/12 06:08:22;;;;;;;16.52;11.75;;;11.10;95.60;;;;;;5053651;28;20033;-56
2022/04/12 06:10:48;;;;;;;19.33;12.10;;;11.20;95.50;;;;;;5053716;28;20061;-53
2022/04/12 06:13:15;;;;;;;17.95;12.07;;;11.20;95.40;;;;;;5053680;28;20119;-51
2022/04/12 06:15:42;;;;;;;20.75;12.15;;;11.20;95.50;;;;;;5053745;28;20469;-54
2022/04/12 06:18:10;;;;;;;20.02;12.95;;;11.10;95.40;;;;;;5053557;28;20067;-53
2022/04/12 06:20:37;;;;;;;23.20;14.45;;;11.10;95.30;;;;;;5052337;28;20084;-55
2022/04/12 06:23:04;;;;;;;19.45;13.52;;;11.10;95.30;;;;;;5053484;28;20067;-55
2022/04/12 06:25:30;;;;;;;19.60;13.75;;;11.10;95.30;;;;;;5053323;28;20076;-54
2022/04/12 06:27:57;;;;;;;18.77;12.75;;;11.20;95.40;;;;;;5053577;28;20045;-53
2022/04/12 06:30:24;;;;;;;12.80;9.55;;;11.20;95.40;;;;;;5053359;28;20431;-52
2022/04/12 06:32:50;;;;;;;12.50;8.35;;;11.30;95.50;;;;;;5055531;28;20385;-55
2022/04/12 06:35:17;;;;;;;9.25;6.15;;;11.40;95.50;;;;;;5053320;28;20048;-55
2022/04/12 06:37:44;;;;;;;8.00;5.38;;;11.50;95.50;;;;;;5053274;28;20403;-52
2022/04/12 06:40:11;;;;;;;7.90;5.30;;;11.60;95.30;;;;;;5053226;28;20518;-50
2022/04/12 06:42:37;;;;;;;10.48;5.50;;;11.80;95.10;;;;;;5052841;28;20102;-54
2022/04/12 06:45:05;;;;;;;10.10;5.45;;;11.90;95.00;;;;;;5053025;28;20056;-56
2022/04/12 06:47:33;;;;;;;9.82;5.13;;;12.00;94.80;;;;;;5053077;28;20071;-54
2022/04/12 06:50:00;;;;;;;9.13;5.05;;;12.10;94.70;;;;;;5053005;28;20045;-52
2022/04/12 06:52:28;;;;;;;10.48;6.13;;;12.20;94.50;;;;;;5056002;28;20041;-55
2022/04/12 06:54:55;;;;;;;8.85;5.75;;;12.20;94.50;;;;;;5054035;28;20509;-54
2022/04/12 06:57:22;;;;;;;10.02;4.85;;;12.30;94.40;;;;;;5053271;28;20052;-55
2022/04/12 06:59:50;;;;;;;9.65;5.18;;;12.40;94.30;;;;;;5052992;28;20396;-54
2022/04/12 07:02:17;;;;;;;9.32;4.95;;;12.40;94.20;;;;;;5056059;28;20113;-55
2022/04/12 07:04:44;;;;;;;9.65;5.05;;;12.50;94.10;;;;;;5053073;28;20377;-54
2022/04/12 07:07:10;;;;;;;9.77;5.30;;;12.60;94.00;;;;;;5052799;28;20094;-53
2022/04/12 07:09:37;;;;;;;8.18;5.03;;;12.70;93.90;;;;;;5051658;28;20068;-54
2022/04/12 07:12:04;;;;;;;9.05;4.93;;;12.70;93.80;;;;;;5052988;28;20068;-56
2022/04/12 07:14:32;;;;;;;8.48;4.80;;;12.80;93.80;;;;;;5052799;28;20090;-55
2022/04/12 07:16:59;;;;;;;11.68;4.53;;;12.90;93.80;;;;;;5052782;28;20048;-53
2022/04/12 07:19:26;;;;;;;8.35;4.13;;;12.90;93.70;;;;;;5052798;28;20075;-52
2022/04/12 07:21:52;;;;;;;9.20;4.78;;;12.90;93.60;;;;;;5052722;28;20041;-54
2022/04/12 07:24:19;;;;;;;8.43;4.60;;;13.00;93.60;;;;;;5052724;28;20037;-55
2022/04/12 07:26:46;;;;;;;7.93;4.43;;;13.10;93.60;;;;;;5052565;28;20407;-54
2022/04/12 07:29:13;;;;;;;8.98;4.72;;;13.20;93.40;;;;;;5052869;28;20045;-54
2022/04/12 07:31:40;;;;;;;9.32;4.70;;;13.30;93.30;;;;;;5052919;28;20506;-52
2022/04/12 07:34:07;;;;;;;7.47;4.38;;;13.40;93.30;;;;;;5052819;28;20037;-54
2022/04/12 07:36:36;;;;;;;7.55;4.10;;;13.40;93.10;;;;;;5052723;28;20052;-49
2022/04/12 07:39:04;;;;;;;9.88;3.95;;;13.60;93.10;;;;;;5052584;28;20037;-53
2022/04/12 07:41:31;;;;;;;9.45;4.47;;;13.70;93.00;;;;;;5052530;28;20076;-52
2022/04/12 07:43:57;;;;;;;8.90;4.65;;;13.80;92.70;;;;;;5052672;28;20076;-55
2022/04/12 07:46:24;;;;;;;9.88;4.57;;;13.90;92.60;;;;;;5052483;28;20037;-56
2022/04/12 07:48:51;;;;;;;8.52;4.43;;;14.00;92.40;;;;;;5052557;28;20041;-54
2022/04/12 07:51:18;;;;;;;11.52;4.30;;;14.10;92.20;;;;;;5052302;28;20060;-53
2022/04/12 07:53:45;;;;;;;9.73;4.43;;;14.30;91.70;;;;;;5054134;28;20037;-52
2022/04/12 07:56:11;;;;;;;12.55;4.43;;;14.30;91.80;;;;;;5056246;28;20044;-56
2022/04/12 07:58:38;;;;;;;9.52;4.40;;;14.40;91.80;;;;;;5056518;28;20428;-54
2022/04/12 08:01:05;;;;;;;6.20;3.72;;;14.40;91.70;;;;;;5056055;28;20049;-53
2022/04/12 08:03:32;;;;;;;8.02;4.30;;;14.40;91.70;;;;;;5058956;28;20080;-51
2022/04/12 08:05:58;;;;;;;6.35;4.10;;;14.40;91.70;;;;;;5055003;28;20041;-57
2022/04/12 15:30:24;;;;;;;;;;;15.80;94.40;;;;;;5091350;28;20382;-50
2022/04/12 15:32:50;;;;;;;11.10;3.92;;;15.80;94.80;;;;;;5090163;28;20335;-51
2022/04/12 15:35:18;;;;;;;10.80;3.80;;;15.90;94.50;;;;;;5074064;28;20514;-52
2022/04/12 15:37:44;;;;;;;10.13;3.95;;;16.00;94.70;;;;;;5071099;28;20037;-50
2022/04/12 15:40:15;;;;;;;13.25;3.75;;;16.10;94.40;;;;;;5086428;28;20040;-47
2022/04/12 15:42:45;;;;;;;11.07;3.53;;;16.10;94.20;;;;;;5089946;28;20461;-51
2022/04/12 15:45:12;;;;;;;10.07;3.15;;;16.20;94.30;;;;;;5090190;28;20055;-51
2022/04/12 15:47:38;;;;;;;10.93;3.35;;;16.20;94.20;;;;;;5089977;28;20040;-52
2022/04/12 15:50:05;;;;;;;11.10;3.40;;;16.30;94.10;;;;;;5090065;28;20123;-51
2022/04/12 15:52:32;;;;;;;11.48;3.08;;;16.50;94.20;;;;;;5089929;28;20040;-50
2022/04/12 15:54:59;;;;;;;12.70;3.78;;;16.50;93.80;;;;;;5071858;28;20036;-53
2022/04/12 15:57:25;;;;;;;11.35;3.17;;;16.60;93.30;;;;;;5071849;28;20064;-52
2022/04/12 15:59:52;;;;;;;11.13;4.03;;;16.50;93.40;;;;;;5089639;28;20055;-52
2022/04/12 16:02:19;;;;;;;9.10;3.35;;;16.50;93.50;;;;;;5089729;28;20067;-50
2022/04/12 16:04:46;;;;;;;9.10;3.13;;;16.50;93.00;;;;;;5089797;28;20051;-53
2022/04/12 16:07:13;;;;;;;11.20;2.75;;;16.50;93.10;;;;;;5089644;28;20040;-51
2022/04/12 16:09:42;;;;;;;9.30;2.50;;;16.50;93.00;;;;;;5089418;28;20046;-52
2022/04/12 16:12:09;;;;;;;7.88;2.50;;;16.50;92.60;;;;;;5089325;28;20037;-52
2022/04/12 16:14:36;;;;;;;7.28;2.58;;;16.60;92.40;;;;;;5089523;28;20043;-54
2022/04/12 16:17:04;;;;;;;6.85;2.17;;;16.60;92.20;;;;;;5089847;28;20036;-48
2022/04/12 16:19:30;;;;;;;10.82;2.53;;;16.60;92.30;;;;;;5089719;28;20041;-51
2022/04/12 16:21:57;;;;;;;7.65;2.35;;;16.70;92.30;;;;;;5087425;28;20102;-53
2022/04/12 16:24:24;;;;;;;7.07;2.45;;;16.60;92.10;;;;;;5069912;28;20067;-48
2022/04/12 16:26:51;;;;;;;6.78;2.95;;;16.70;92.00;;;;;;5069880;28;20479;-53
2022/04/12 16:29:18;;;;;;;7.60;2.30;;;16.70;91.80;;;;;;5069781;28;20049;-51
2022/04/12 16:31:44;;;;;;;7.95;2.40;;;16.70;91.60;;;;;;5069821;28;20083;-49
2022/04/12 16:34:11;;;;;;;6.65;2.38;;;16.70;91.30;;;;;;5078167;28;20115;-48
2022/04/12 16:36:38;;;;;;;5.88;2.05;;;16.70;91.40;;;;;;5089093;28;20046;-46
2022/04/12 16:39:05;;;;;;;8.52;2.50;;;16.90;91.40;;;;;;5088903;28;20040;-48
2022/04/12 16:41:31;;;;;;;6.68;2.85;;;17.10;91.20;;;;;;5076745;28;20070;-53
2022/04/12 16:43:58;;;;;;;7.60;2.40;;;17.20;90.50;;;;;;5075392;28;20044;-52
2022/04/12 16:46:25;;;;;;;10.00;2.47;;;17.40;90.20;;;;;;5062674;28;20067;-46
2022/04/12 16:48:53;;;;;;;5.80;2.40;;;17.70;90.00;;;;;;5075456;28;20037;-49
2022/04/12 16:51:20;;;;;;;7.57;2.28;;;17.80;88.70;;;;;;5075159;28;20433;-48
2022/04/12 16:53:47;;;;;;;7.25;2.63;;;17.80;89.00;;;;;;5075098;28;20052;-51
2022/04/12 16:56:13;;;;;;;6.30;2.28;;;17.60;89.00;;;;;;5075384;28;20068;-48
2022/04/12 16:58:40;;;;;;;6.18;2.47;;;17.40;89.40;;;;;;5062005;28;20037;-47
2022/04/12 17:01:07;;;;;;;6.00;1.90;;;17.30;89.80;;;;;;5055750;28;20450;-48
2022/04/12 17:03:34;;;;;;;8.00;2.50;;;17.10;90.00;;;;;;5041929;28;20612;-49
2022/04/12 17:06:01;;;;;;;6.88;2.60;;;17.10;90.30;;;;;;5055419;28;20487;-49
2022/04/12 17:08:28;;;;;;;6.18;2.17;;;17.10;90.30;;;;;;5062131;28;20450;-55
2022/04/12 17:10:55;;;;;;;7.40;2.30;;;17.00;90.30;;;;;;5055234;28;20072;-49
2022/04/12 17:13:21;;;;;;;9.57;2.35;;;17.10;90.40;;;;;;5055269;28;20147;-48
2022/04/12 17:15:48;;;;;;;8.15;2.45;;;17.00;90.30;;;;;;5055322;28;20055;-51
2022/04/12 17:18:16;;;;;;;6.15;2.03;;;17.00;90.40;;;;;;5055226;28;20066;-50
2022/04/12 17:20:47;;;;;;;6.28;2.40;;;16.90;90.50;;;;;;5055184;28;20079;-47
2022/04/12 17:23:14;;;;;;;6.30;2.30;;;16.80;90.60;;;;;;5074701;28;20051;-49
2022/04/12 17:25:41;;;;;;;6.68;2.00;;;16.70;90.70;;;;;;5075107;28;20432;-58
2022/04/12 17:28:07;;;;;;;9.80;2.20;;;16.60;90.90;;;;;;5074392;28;20044;-55
2022/04/12 17:30:34;;;;;;;4.95;1.92;;;16.50;91.10;;;;;;5074431;28;20090;-52
2022/04/12 17:33:01;;;;;;;5.80;2.22;;;16.50;91.20;;;;;;5056796;28;20036;-52
2022/04/12 17:35:28;;;;;;;5.93;1.98;;;16.40;91.30;;;;;;5073829;28;20466;-50
2022/04/12 17:37:54;;;;;;;6.05;1.80;;;16.40;91.30;;;;;;5074424;28;20036;-49
2022/04/12 17:40:21;;;;;;;7.90;2.35;;;16.40;91.40;;;;;;5074385;28;20483;-51
2022/04/12 17:42:48;;;;;;;7.25;2.20;;;16.30;91.30;;;;;;5056554;28;20040;-50
2022/04/12 17:45:15;;;;;;;5.10;2.53;;;16.20;91.30;;;;;;5056346;28;20048;-54
2022/04/12 17:47:42;;;;;;;5.57;2.28;;;16.10;91.10;;;;;;5055051;28;20085;-49
2022/04/12 17:50:08;;;;;;;6.55;2.40;;;16.10;91.10;;;;;;5054814;28;20481;-53
2022/04/12 17:52:35;;;;;;;6.75;2.00;;;16.00;91.10;;;;;;5053783;28;20037;-52
2022/04/12 17:55:02;;;;;;;6.30;2.00;;;16.00;91.20;;;;;;5054953;28;20064;-50
2022/04/12 17:57:29;;;;;;;10.45;2.28;;;15.90;91.10;;;;;;5054856;28;20116;-49
2022/04/12 17:59:55;;;;;;;7.65;1.80;;;15.90;91.30;;;;;;5054698;28;20507;-54
2022/04/12 18:02:22;;;;;;;7.25;2.30;;;15.80;91.40;;;;;;5054676;28;20476;-54
2022/04/12 18:04:55;;;;;;;8.30;2.60;;;15.70;91.50;;;;;;5068331;28;20495;-52
2022/04/12 18:07:23;;;;;;;8.02;2.20;;;15.60;91.70;;;;;;5069166;28;20071;-53
2022/04/12 18:09:49;;;;;;;8.48;2.47;;;15.60;91.80;;;;;;5054471;28;20045;-50
2022/04/12 18:12:16;;;;;;;7.72;2.70;;;15.50;91.90;;;;;;5054591;28;20051;-49
2022/04/12 18:14:43;;;;;;;8.20;2.53;;;15.50;92.00;;;;;;5054570;28;20044;-51
2022/04/12 18:17:10;;;;;;;11.55;3.08;;;15.40;92.20;;;;;;5054367;28;20041;-51
2022/04/12 18:19:36;;;;;;;7.30;2.45;;;15.40;92.40;;;;;;5054399;28;20045;-48
2022/04/12 18:22:22;;;;;;;6.88;2.33;;;15.30;92.50;;;;;;5067223;28;20479;-51
2022/04/12 18:24:49;;;;;;;9.23;2.40;;;15.20;92.70;;;;;;5053937;28;20074;-50
2022/04/12 18:27:16;;;;;;;7.78;2.40;;;15.20;92.90;;;;;;5073589;28;20491;-49
2022/04/12 18:29:43;;;;;;;13.60;3.10;;;15.10;93.00;;;;;;5053509;28;20053;-53
2022/04/12 18:32:10;;;;;;;9.95;3.08;;;15.00;93.10;;;;;;5070143;28;20033;-53
2022/04/12 18:34:36;;;;;;;7.60;2.65;;;15.00;93.30;;;;;;5067358;28;20507;-51
2022/04/12 18:37:03;;;;;;;7.18;2.40;;;14.90;93.50;;;;;;5060771;28;20459;-55
2022/04/12 18:39:30;;;;;;;9.63;3.00;;;14.90;93.60;;;;;;5066167;28;20128;-55
2022/04/12 18:41:57;;;;;;;6.85;2.30;;;14.90;93.70;;;;;;5073037;28;20050;-54
2022/04/12 18:44:23;;;;;;;10.65;2.65;;;14.80;93.70;;;;;;5073141;28;20047;-52
2022/04/12 18:46:50;;;;;;;10.05;2.53;;;14.80;93.80;;;;;;5073221;28;20044;-54
2022/04/12 18:49:17;;;;;;;8.85;2.75;;;14.80;93.80;;;;;;5060528;28;20086;-55
2022/04/12 18:51:44;;;;;;;7.13;2.38;;;14.80;93.80;;;;;;5054953;28;20033;-55
2022/04/12 18:54:16;;;;;;;11.13;2.88;;;14.90;93.90;;;;;;5066918;28;20037;-54
2022/04/12 18:56:42;;;;;;;9.15;2.75;;;14.80;93.90;;;;;;5072217;28;20473;-55
2022/04/12 18:59:09;;;;;;;13.30;2.92;;;14.80;93.90;;;;;;5054767;28;20049;-55
2022/04/12 19:01:36;;;;;;;9.80;2.70;;;14.80;94.00;;;;;;5053711;28;20037;-54
2022/04/12 19:04:04;;;;;;;13.43;2.97;;;14.70;94.00;;;;;;5053556;28;20460;-54
2022/04/12 19:06:31;;;;;;;8.10;2.45;;;14.70;94.10;;;;;;5071686;28;20459;-52
2022/04/12 19:08:57;;;;;;;9.02;3.10;;;14.70;94.20;;;;;;5072702;28;20044;-51
2022/04/12 19:11:24;;;;;;;9.55;2.70;;;14.60;94.10;;;;;;5072837;28;20083;-50
2022/04/12 19:13:53;;;;;;;11.65;3.17;;;14.60;94.30;;;;;;5072821;28;20040;-54
2022/04/12 19:16:21;;;;;;;10.73;3.03;;;14.60;94.30;;;;;;5072716;28;20064;-50
2022/04/12 19:18:47;;;;;;;8.15;2.65;;;14.60;94.30;;;;;;5072731;28;20044;-50
2022/04/12 19:21:14;;;;;;;8.45;3.10;;;14.50;94.30;;;;;;5072562;28;20048;-52
2022/04/12 19:23:41;;;;;;;13.07;2.92;;;14.50;94.50;;;;;;5071749;28;20045;-49
2022/04/12 19:26:08;;;;;;;7.97;2.90;;;14.40;94.70;;;;;;5073149;28;20048;-53
2022/04/12 19:28:35;;;;;;;8.90;3.03;;;14.40;94.70;;;;;;5061908;28;20141;-52
2022/04/12 19:31:02;;;;;;;8.75;3.28;;;14.30;94.90;;;;;;5055816;28;20086;-56
2022/04/12 19:33:29;;;;;;;9.60;2.80;;;14.30;95.00;;;;;;5068733;28;20491;-52
2022/04/12 19:35:58;;;;;;;8.80;3.42;;;14.20;95.00;;;;;;5053671;28;20060;-56
2022/04/12 19:38:25;;;;;;;8.55;2.97;;;14.20;95.20;;;;;;5070667;28;20040;-49
2022/04/12 19:40:52;;;;;;;13.60;3.25;;;14.20;95.30;;;;;;5072645;28;20041;-53
2022/04/12 19:43:19;;;;;;;11.63;3.28;;;14.20;95.30;;;;;;5072815;28;20048;-54
2022/04/12 19:45:46;;;;;;;10.10;3.63;;;14.20;95.30;;;;;;5062539;28;20483;-51
2022/04/12 19:48:14;;;;;;;11.35;3.13;;;14.20;95.40;;;;;;5053534;28;20186;-53
2022/04/12 19:50:41;;;;;;;9.80;2.90;;;14.20;95.30;;;;;;5053307;28;20067;-54
2022/04/12 19:53:08;;;;;;;11.18;3.30;;;14.20;95.40;;;;;;5056654;28;20036;-50
2022/04/12 19:55:34;;;;;;;9.20;2.78;;;14.20;95.40;;;;;;5072613;28;20123;-51
2022/04/12 19:58:01;;;;;;;9.15;3.10;;;14.20;95.20;;;;;;5072651;28;20049;-51